Time;durP1;ratioP1;P1;durP2;ratioP2;P2;SDS_P1;SDS_P2;PMS_P1;PMS_P2;Temp;Humidity;BMP_temperature;BMP_pressure;BME280_temperature;BME280_humidity;BME280_pressure;Samples;Min_cycle;Max_cycle;Signal;HPM_P1;HPM_P2
2024/01/04 00:01:35;;;;;;;0.80;0.80;;;9.00;99.90;;;;;;5183053;28;20220;-53
2024/01/04 00:04:05;;;;;;;5.20;1.27;;;9.10;99.90;;;;;;5184078;28;20539;-53
2024/01/04 00:06:41;;;;;;;0.97;0.80;;;9.10;99.90;;;;;;5185578;28;20243;-53
2024/01/04 00:09:12;;;;;;;1.70;1.03;;;9.10;99.90;;;;;;5183903;28;20184;-53
2024/01/04 00:11:43;;;;;;;4.23;1.17;;;9.10;99.90;;;;;;5181891;28;20455;-52
2024/01/04 00:14:13;;;;;;;1.83;1.40;;;9.00;99.90;;;;;;5200162;28;20298;-52
2024/01/04 00:16:44;;;;;;;6.00;1.27;;;9.10;99.90;;;;;;5184061;28;20211;-52
2024/01/04 00:19:15;;;;;;;5.33;0.93;;;9.20;99.90;;;;;;5178197;28;20849;-52
2024/01/04 00:21:45;;;;;;;3.60;0.77;;;9.10;99.90;;;;;;5183281;28;20675;-52
2024/01/04 00:24:16;;;;;;;1.43;1.00;;;9.10;99.90;;;;;;5184749;28;20180;-51
2024/01/04 00:26:47;;;;;;;2.73;0.80;;;9.20;99.90;;;;;;5183268;28;20211;-52
2024/01/04 00:29:17;;;;;;;2.20;1.03;;;9.10;99.90;;;;;;5185822;28;20188;-52
2024/01/04 00:31:48;;;;;;;3.30;0.90;;;9.10;99.90;;;;;;5183402;28;20270;-52
2024/01/04 00:34:19;;;;;;;0.60;0.60;;;9.20;99.90;;;;;;5182340;28;20201;-52
2024/01/04 00:36:50;;;;;;;1.17;0.80;;;9.00;99.90;;;;;;5185100;28;20478;-52
2024/01/04 00:39:24;;;;;;;3.80;0.80;;;9.00;99.90;;;;;;5184943;28;20189;-52
2024/01/04 00:41:55;;;;;;;0.57;0.57;;;9.10;99.90;;;;;;5182293;28;20211;-52
2024/01/04 00:44:26;;;;;;;3.70;0.80;;;8.90;99.90;;;;;;5192322;28;20454;-52
2024/01/04 00:46:57;;;;;;;4.70;0.90;;;9.00;99.90;;;;;;5184553;28;20435;-52
2024/01/04 00:49:31;;;;;;;2.40;0.70;;;8.90;99.90;;;;;;5197435;28;20272;-53
2024/01/04 00:52:01;;;;;;;0.83;0.83;;;8.80;99.90;;;;;;5182772;28;20188;-52
2024/01/04 00:54:32;;;;;;;3.53;1.00;;;8.90;99.90;;;;;;5183617;28;20524;-53
2024/01/04 00:57:03;;;;;;;2.00;0.80;;;9.00;99.90;;;;;;5186969;28;20204;-52
2024/01/04 00:59:33;;;;;;;1.60;0.73;;;8.90;99.90;;;;;;5183503;28;20570;-52
2024/01/04 01:02:04;;;;;;;1.37;0.73;;;8.90;99.90;;;;;;5183693;28;20585;-53
2024/01/04 01:04:37;;;;;;;2.20;0.83;;;9.00;99.90;;;;;;5190115;28;20180;-52
2024/01/04 01:07:07;;;;;;;9.10;0.80;;;9.00;99.90;;;;;;5211563;23;20493;-49
2024/01/04 01:09:39;;;;;;;2.87;0.57;;;9.00;99.90;;;;;;5203355;28;20963;-47
2024/01/04 01:12:09;;;;;;;3.50;1.23;;;9.00;99.90;;;;;;5202415;28;20190;-50
2024/01/04 01:14:41;;;;;;;1.17;0.50;;;9.10;99.90;;;;;;5201011;28;20466;-49
2024/01/04 01:17:11;;;;;;;0.83;0.60;;;9.10;99.90;;;;;;5189565;28;20289;-48
2024/01/04 01:19:42;;;;;;;2.30;1.43;;;9.00;99.90;;;;;;5203523;28;21044;-48
2024/01/04 01:22:13;;;;;;;0.77;0.73;;;9.00;99.90;;;;;;5203407;28;20164;-49
2024/01/04 01:24:43;;;;;;;3.80;1.23;;;9.00;99.90;;;;;;5185901;28;20183;-48
2024/01/04 01:27:14;;;;;;;0.90;0.90;;;9.00;99.90;;;;;;5201315;28;21636;-47
2024/01/04 01:29:44;;;;;;;3.70;1.30;;;9.00;99.90;;;;;;5207388;28;20194;-48
2024/01/04 01:32:15;;;;;;;1.33;0.70;;;8.90;99.90;;;;;;5209728;28;20283;-48
2024/01/04 01:34:46;;;;;;;0.80;0.67;;;8.90;99.90;;;;;;5201039;28;20545;-50
2024/01/04 01:37:16;;;;;;;1.93;0.90;;;9.00;99.90;;;;;;5202747;28;20242;-48
2024/01/04 01:39:47;;;;;;;7.00;0.90;;;9.10;99.90;;;;;;5203529;28;20172;-48
2024/01/04 01:42:20;;;;;;;0.67;0.67;;;9.10;99.90;;;;;;5185516;28;20183;-48
2024/01/04 01:44:51;;;;;;;1.37;0.97;;;9.00;99.90;;;;;;5167914;28;20181;-48
2024/01/04 01:47:24;;;;;;;0.80;0.70;;;8.90;99.90;;;;;;5203134;28;20460;-49
2024/01/04 01:49:54;;;;;;;0.77;0.70;;;8.90;99.90;;;;;;5198738;28;20229;-49
2024/01/04 01:52:25;;;;;;;3.30;0.40;;;8.90;99.90;;;;;;5202848;28;20439;-49
2024/01/04 01:54:56;;;;;;;1.17;0.83;;;8.90;99.90;;;;;;5184280;28;20237;-48
2024/01/04 01:57:27;;;;;;;1.43;0.50;;;8.90;99.90;;;;;;5203228;28;20219;-48
2024/01/04 01:59:58;;;;;;;2.33;0.97;;;9.00;99.90;;;;;;5197315;28;20179;-48
2024/01/04 02:02:29;;;;;;;1.70;0.70;;;9.00;99.90;;;;;;5185420;28;20416;-47
2024/01/04 02:05:00;;;;;;;3.70;0.60;;;9.00;99.90;;;;;;5198602;28;20470;-50
2024/01/04 02:07:31;;;;;;;0.67;0.60;;;9.00;99.90;;;;;;5200860;28;20215;-50
2024/01/04 02:10:01;;;;;;;1.67;0.70;;;9.00;99.90;;;;;;5195996;28;20443;-49
2024/01/04 02:12:32;;;;;;;4.33;1.10;;;9.00;99.90;;;;;;5188918;28;20180;-49
2024/01/04 02:15:03;;;;;;;2.13;0.80;;;9.00;99.90;;;;;;5202377;28;20176;-48
2024/01/04 02:17:34;;;;;;;1.67;0.73;;;9.00;99.90;;;;;;5200929;28;20537;-49
2024/01/04 02:20:06;;;;;;;0.87;0.47;;;9.00;99.90;;;;;;5201203;28;20647;-48
2024/01/04 02:22:43;;;;;;;0.70;0.70;;;9.00;99.90;;;;;;5181011;28;20780;-49
2024/01/04 02:25:14;;;;;;;0.67;0.67;;;9.10;99.90;;;;;;5200052;28;20522;-49
2024/01/04 02:27:45;;;;;;;2.00;0.70;;;9.00;99.90;;;;;;5200158;28;20540;-48
2024/01/04 02:30:15;;;;;;;1.27;0.70;;;9.00;99.90;;;;;;5199165;28;20208;-48
2024/01/04 02:32:47;;;;;;;1.37;0.73;;;8.90;99.90;;;;;;5184150;28;20207;-50
2024/01/04 02:35:17;;;;;;;1.07;0.80;;;8.90;99.90;;;;;;5198669;28;20575;-50
2024/01/04 02:37:48;;;;;;;2.20;0.77;;;8.80;99.90;;;;;;5202949;28;20489;-49
2024/01/04 02:40:21;;;;;;;0.43;0.43;;;9.00;99.90;;;;;;5199757;28;20180;-49
2024/01/04 02:42:52;;;;;;;0.97;0.70;;;9.00;99.90;;;;;;5187487;28;20283;-48
2024/01/04 02:45:22;;;;;;;0.83;0.80;;;8.90;99.90;;;;;;5183278;28;21043;-48
2024/01/04 02:47:53;;;;;;;2.20;0.53;;;8.90;99.90;;;;;;5184895;28;20217;-48
2024/01/04 02:50:23;;;;;;;0.97;0.80;;;8.90;99.90;;;;;;5200347;28;20640;-49
2024/01/04 02:52:54;;;;;;;5.03;0.70;;;8.90;99.90;;;;;;5200728;28;20207;-49
2024/01/04 02:55:25;;;;;;;2.43;0.40;;;8.80;99.90;;;;;;5187952;28;20179;-48
2024/01/04 02:57:55;;;;;;;1.30;1.20;;;8.80;99.90;;;;;;5198685;28;20203;-50
2024/01/04 03:00:27;;;;;;;0.80;0.77;;;8.80;99.90;;;;;;5201693;28;20180;-49
2024/01/04 03:02:57;;;;;;;0.80;0.67;;;8.80;99.90;;;;;;5198102;28;20187;-50
2024/01/04 03:05:28;;;;;;;0.80;0.80;;;8.90;99.90;;;;;;5187349;28;20968;-49
2024/01/04 03:07:59;;;;;;;0.50;0.50;;;8.90;99.90;;;;;;5204102;28;20717;-50
2024/01/04 03:10:29;;;;;;;0.70;0.40;;;9.00;99.90;;;;;;5202576;28;20218;-49
2024/01/04 03:13:00;;;;;;;2.37;0.60;;;9.10;99.90;;;;;;5188085;28;20290;-49
2024/01/04 03:15:31;;;;;;;1.27;0.70;;;9.00;99.90;;;;;;5202483;28;20639;-48
2024/01/04 03:18:01;;;;;;;0.93;0.40;;;8.90;99.90;;;;;;5200940;28;20200;-49
2024/01/04 03:20:32;;;;;;;0.50;0.50;;;8.90;99.90;;;;;;5202928;28;20192;-49
2024/01/04 03:23:03;;;;;;;1.60;0.43;;;8.90;99.90;;;;;;5184525;28;20266;-49
2024/01/04 03:25:33;;;;;;;0.80;0.30;;;8.90;99.90;;;;;;5186255;28;20187;-48
2024/01/04 03:28:04;;;;;;;0.90;0.63;;;8.80;99.90;;;;;;5204036;28;20194;-48
2024/01/04 03:30:35;;;;;;;1.07;0.60;;;8.70;99.90;;;;;;5201576;28;20199;-49
2024/01/04 03:33:05;;;;;;;0.30;0.30;;;8.50;99.90;;;;;;5201106;28;20238;-49
2024/01/04 03:35:36;;;;;;;3.20;0.57;;;8.50;99.90;;;;;;5204154;28;20605;-49
2024/01/04 03:38:06;;;;;;;0.50;0.33;;;8.40;99.90;;;;;;5188223;28;20241;-48
2024/01/04 03:40:37;;;;;;;2.57;0.93;;;8.40;99.90;;;;;;5203030;28;20179;-48
2024/01/04 03:43:08;;;;;;;0.93;0.57;;;8.30;99.90;;;;;;5202600;28;20196;-48
2024/01/04 03:45:38;;;;;;;1.00;0.40;;;8.20;99.90;;;;;;5201276;28;20686;-48
2024/01/04 03:48:09;;;;;;;0.40;0.40;;;8.30;99.90;;;;;;5194780;28;20994;-49
2024/01/04 03:50:39;;;;;;;0.90;0.50;;;8.20;99.90;;;;;;5207831;28;20234;-48
2024/01/04 03:53:10;;;;;;;0.50;0.50;;;8.20;99.90;;;;;;5204895;28;20213;-49
2024/01/04 03:55:41;;;;;;;1.13;0.90;;;8.20;99.90;;;;;;5203600;28;20593;-48
2024/01/04 03:58:11;;;;;;;0.30;0.30;;;8.20;99.90;;;;;;5193867;28;20246;-49
2024/01/04 04:00:42;;;;;;;0.70;0.70;;;8.30;99.90;;;;;;5185886;28;20662;-49
2024/01/04 04:03:17;;;;;;;0.60;0.60;;;8.20;99.90;;;;;;5200216;28;20206;-50
2024/01/04 04:05:47;;;;;;;1.80;0.70;;;8.10;99.90;;;;;;5203519;28;20193;-49
2024/01/04 04:08:18;;;;;;;1.33;0.47;;;8.10;99.90;;;;;;5203014;28;20797;-49
2024/01/04 04:10:48;;;;;;;0.50;0.50;;;8.10;99.90;;;;;;5203264;28;20190;-49
2024/01/04 04:13:19;;;;;;;0.50;0.50;;;8.00;99.90;;;;;;5202980;28;20613;-50
2024/01/04 04:15:50;;;;;;;4.10;0.70;;;8.00;99.90;;;;;;5185969;28;20215;-48
2024/01/04 04:18:20;;;;;;;0.73;0.57;;;8.00;99.90;;;;;;5204506;28;20176;-49
2024/01/04 04:20:51;;;;;;;0.77;0.67;;;8.00;99.90;;;;;;5171083;28;20175;-49
2024/01/04 04:23:21;;;;;;;0.93;0.50;;;8.00;99.90;;;;;;5202850;28;20187;-50
2024/01/04 04:25:52;;;;;;;0.43;0.40;;;8.00;99.90;;;;;;5201828;28;20326;-49
2024/01/04 04:28:23;;;;;;;0.30;0.30;;;8.10;99.90;;;;;;5201534;28;20202;-50
2024/01/04 04:30:54;;;;;;;1.23;0.60;;;8.10;99.90;;;;;;5201128;28;20271;-48
2024/01/04 04:33:25;;;;;;;0.70;0.57;;;8.10;99.90;;;;;;5201335;28;20469;-48
2024/01/04 04:35:55;;;;;;;0.80;0.67;;;8.10;99.90;;;;;;5200267;28;20707;-49
2024/01/04 04:38:26;;;;;;;0.50;0.50;;;8.20;99.90;;;;;;5204131;28;20492;-49
2024/01/04 04:40:57;;;;;;;1.70;0.50;;;8.30;99.90;;;;;;5200172;28;20323;-49
2024/01/04 04:43:28;;;;;;;0.63;0.40;;;8.30;99.90;;;;;;5203499;28;20289;-49
2024/01/04 04:45:58;;;;;;;2.67;0.60;;;8.20;99.90;;;;;;5201730;28;20215;-49
2024/01/04 04:48:31;;;;;;;1.70;0.70;;;8.30;99.90;;;;;;5183725;28;20184;-49
2024/01/04 04:51:02;;;;;;;0.70;0.70;;;8.30;99.90;;;;;;5197880;28;20184;-48
2024/01/04 04:53:32;;;;;;;0.60;0.60;;;8.40;99.90;;;;;;5184871;28;20461;-49
2024/01/04 04:56:04;;;;;;;0.77;0.77;;;8.40;99.90;;;;;;5184535;28;20469;-49
2024/01/04 04:58:34;;;;;;;0.80;0.60;;;8.40;99.90;;;;;;5196386;28;20894;-49
2024/01/04 05:01:06;;;;;;;0.50;0.50;;;8.40;99.90;;;;;;5201093;28;20426;-49
2024/01/04 05:03:37;;;;;;;0.53;0.53;;;8.40;99.90;;;;;;5199900;28;20954;-48
2024/01/04 05:06:10;;;;;;;2.60;0.90;;;8.30;99.90;;;;;;5202262;28;20519;-50
2024/01/04 05:08:41;;;;;;;0.60;0.50;;;8.40;99.90;;;;;;5204376;28;20180;-50
2024/01/04 05:11:11;;;;;;;0.97;0.67;;;8.40;99.90;;;;;;5202198;28;20437;-50
2024/01/04 05:13:42;;;;;;;0.50;0.50;;;8.30;99.90;;;;;;5199524;28;20239;-49
2024/01/04 05:16:13;;;;;;;4.63;1.00;;;8.30;99.90;;;;;;5204822;28;20203;-49
2024/01/04 05:18:43;;;;;;;0.83;0.70;;;8.30;99.90;;;;;;5194141;28;20540;-49
2024/01/04 05:21:14;;;;;;;0.63;0.63;;;8.40;99.90;;;;;;5174926;28;20188;-49
2024/01/04 05:23:44;;;;;;;1.13;1.13;;;8.40;99.90;;;;;;5198391;28;21621;-49
2024/01/04 05:26:22;;;;;;;1.70;1.30;;;8.40;99.90;;;;;;5200961;28;20510;-49
2024/01/04 05:28:52;;;;;;;2.37;0.90;;;8.40;99.90;;;;;;5198794;28;20274;-50
2024/01/04 05:31:25;;;;;;;1.03;0.70;;;8.30;99.90;;;;;;5199595;28;20580;-50
2024/01/04 05:33:55;;;;;;;1.43;0.53;;;8.40;99.90;;;;;;5202974;28;20243;-49
2024/01/04 05:36:26;;;;;;;2.10;0.80;;;8.50;99.90;;;;;;5186801;28;20548;-49
2024/01/04 05:38:56;;;;;;;0.67;0.67;;;8.40;99.90;;;;;;5173979;28;20195;-48
2024/01/04 05:41:27;;;;;;;1.00;1.00;;;8.30;99.90;;;;;;5198108;28;20652;-50
2024/01/04 05:43:57;;;;;;;1.10;1.10;;;8.40;99.90;;;;;;5184684;28;20241;-50
2024/01/04 05:46:28;;;;;;;2.10;1.10;;;8.30;99.90;;;;;;5186720;28;20222;-49
2024/01/04 05:48:59;;;;;;;4.33;1.10;;;8.40;99.90;;;;;;5199919;28;20690;-50
2024/01/04 05:51:30;;;;;;;1.57;1.43;;;8.30;99.90;;;;;;5200186;28;20284;-48
2024/01/04 05:54:02;;;;;;;0.90;0.90;;;8.20;99.90;;;;;;5188465;28;20553;-49
2024/01/04 05:56:33;;;;;;;0.90;0.90;;;8.20;99.90;;;;;;5201280;28;20630;-49
2024/01/04 05:59:03;;;;;;;1.30;1.30;;;8.10;99.90;;;;;;5200683;28;20489;-50
2024/01/04 06:01:36;;;;;;;3.50;1.00;;;8.10;99.90;;;;;;5181602;28;20298;-48
2024/01/04 06:04:07;;;;;;;1.13;1.13;;;8.10;99.90;;;;;;5199698;28;20210;-48
2024/01/04 06:06:37;;;;;;;1.10;1.10;;;8.20;99.90;;;;;;5200151;28;20986;-49
2024/01/04 06:09:08;;;;;;;1.50;1.40;;;8.10;99.90;;;;;;5203203;28;20192;-50
2024/01/04 06:11:39;;;;;;;1.60;0.80;;;8.20;99.90;;;;;;5188227;28;20222;-50
2024/01/04 06:14:09;;;;;;;1.33;1.17;;;8.10;99.90;;;;;;5202221;28;20215;-49
2024/01/04 06:16:40;;;;;;;1.13;0.80;;;8.20;99.90;;;;;;5202230;28;20211;-49
2024/01/04 06:19:11;;;;;;;0.83;0.83;;;8.00;99.90;;;;;;5202631;28;20184;-50
2024/01/04 06:21:41;;;;;;;1.23;1.13;;;8.00;99.90;;;;;;5201605;28;20192;-50
2024/01/04 06:24:12;;;;;;;2.30;1.20;;;7.90;99.90;;;;;;5201342;28;20717;-51
2024/01/04 06:26:42;;;;;;;1.47;1.47;;;8.00;99.90;;;;;;5201963;28;20687;-49
2024/01/04 06:29:13;;;;;;;1.40;1.00;;;7.90;99.90;;;;;;5168776;28;20191;-49
2024/01/04 06:31:44;;;;;;;1.43;1.33;;;7.90;99.90;;;;;;5199092;28;20710;-49
2024/01/04 06:34:16;;;;;;;0.90;0.90;;;7.90;99.90;;;;;;5184848;28;20707;-49
2024/01/04 06:36:48;;;;;;;1.40;0.80;;;7.90;99.90;;;;;;5187657;28;20476;-49
2024/01/04 06:39:18;;;;;;;1.10;1.10;;;8.00;99.90;;;;;;5204832;28;20430;-48
2024/01/04 06:41:49;;;;;;;2.33;0.93;;;8.00;99.90;;;;;;5206936;28;20433;-48
2024/01/04 06:44:20;;;;;;;1.87;0.70;;;8.00;99.90;;;;;;5187686;28;20241;-49
2024/01/04 06:46:50;;;;;;;2.53;0.93;;;7.90;99.90;;;;;;5204454;28;20224;-48
2024/01/04 06:49:21;;;;;;;2.83;0.90;;;8.00;99.90;;;;;;5210976;28;20592;-48
2024/01/04 06:51:51;;;;;;;0.50;0.50;;;8.00;99.90;;;;;;5207266;28;20200;-49
2024/01/04 06:54:22;;;;;;;0.63;0.63;;;7.90;99.90;;;;;;5196007;28;20219;-49
2024/01/04 06:56:52;;;;;;;0.63;0.63;;;7.90;99.90;;;;;;5206869;28;20215;-50
2024/01/04 06:59:23;;;;;;;0.60;0.60;;;7.70;99.90;;;;;;5206472;28;20191;-49
2024/01/04 07:01:54;;;;;;;0.30;0.30;;;7.70;99.90;;;;;;5192430;28;20216;-50
2024/01/04 07:04:24;;;;;;;0.50;0.50;;;7.60;99.90;;;;;;5205841;28;20874;-48
2024/01/04 07:06:55;;;;;;;0.30;0.30;;;7.50;99.90;;;;;;5189171;28;20220;-51
2024/01/04 07:09:25;;;;;;;1.90;0.30;;;7.50;99.90;;;;;;5209699;28;20636;-50
2024/01/04 07:11:56;;;;;;;0.20;0.20;;;7.40;99.90;;;;;;5206620;28;20191;-47
2024/01/04 07:14:27;;;;;;;0.87;0.70;;;7.40;99.90;;;;;;5185903;28;20219;-49
2024/01/04 07:16:57;;;;;;;0.40;0.33;;;7.30;99.90;;;;;;5203690;28;20212;-47
2024/01/04 07:19:28;;;;;;;0.67;0.50;;;7.20;99.90;;;;;;5201028;28;20199;-48
2024/01/04 07:21:58;;;;;;;2.53;0.53;;;7.10;99.90;;;;;;5205901;28;20244;-48
2024/01/04 07:24:29;;;;;;;0.30;0.30;;;6.90;99.90;;;;;;5206427;28;20230;-48
2024/01/04 07:26:59;;;;;;;0.47;0.47;;;6.90;99.90;;;;;;5205654;28;20234;-50
2024/01/04 07:29:33;;;;;;;1.00;0.50;;;6.80;99.90;;;;;;5207228;28;20184;-47
2024/01/04 07:32:04;;;;;;;0.73;0.70;;;6.80;99.90;;;;;;5195131;28;20191;-49
2024/01/04 07:34:38;;;;;;;0.30;0.30;;;6.80;99.90;;;;;;5183297;28;20469;-48
2024/01/04 07:37:09;;;;;;;0.50;0.50;;;6.80;99.90;;;;;;5206792;28;20462;-48
2024/01/04 07:39:43;;;;;;;0.30;0.30;;;6.80;99.90;;;;;;5205762;28;20796;-50
2024/01/04 07:42:13;;;;;;;0.40;0.33;;;6.70;99.90;;;;;;5209108;28;20271;-51
2024/01/04 07:44:44;;;;;;;1.03;0.73;;;6.70;99.90;;;;;;5208098;28;22022;-48
2024/01/04 07:47:15;;;;;;;0.40;0.40;;;6.70;99.90;;;;;;5199430;28;20222;-47
2024/01/04 07:49:45;;;;;;;0.43;0.40;;;6.70;99.90;;;;;;5205078;28;20195;-49
2024/01/04 07:52:16;;;;;;;0.30;0.30;;;6.60;99.90;;;;;;5204103;28;20176;-48
2024/01/04 07:54:46;;;;;;;0.30;0.30;;;6.60;99.90;;;;;;5203074;28;20260;-49
2024/01/04 07:57:17;;;;;;;0.30;0.30;;;6.60;99.90;;;;;;5203636;28;20207;-49
2024/01/04 07:59:48;;;;;;;0.37;0.37;;;6.50;99.90;;;;;;5199846;28;20188;-50
2024/01/04 08:02:18;;;;;;;0.60;0.50;;;6.40;99.90;;;;;;5202767;28;20940;-48
2024/01/04 08:04:49;;;;;;;0.73;0.50;;;6.50;99.90;;;;;;5203936;28;20258;-48
2024/01/04 08:07:19;;;;;;;0.90;0.50;;;6.40;99.90;;;;;;5188162;28;20215;-47
2024/01/04 08:09:51;;;;;;;1.43;0.30;;;6.40;99.90;;;;;;5206048;28;20179;-50
2024/01/04 08:12:21;;;;;;;5.10;0.63;;;6.20;99.90;;;;;;5203692;28;20237;-48
2024/01/04 08:14:52;;;;;;;0.40;0.40;;;6.30;99.90;;;;;;5204056;28;20989;-49
2024/01/04 08:17:22;;;;;;;0.33;0.30;;;6.20;99.90;;;;;;5203969;28;20199;-48
2024/01/04 08:19:53;;;;;;;0.37;0.37;;;6.20;99.90;;;;;;5200425;28;20282;-47
2024/01/04 08:22:23;;;;;;;0.40;0.40;;;6.20;99.90;;;;;;5199715;28;20730;-48
2024/01/04 08:24:54;;;;;;;0.70;0.70;;;6.30;99.90;;;;;;5207191;28;20199;-51
2024/01/04 08:27:25;;;;;;;1.17;0.80;;;6.30;99.90;;;;;;5200721;28;20567;-49
2024/01/04 08:29:55;;;;;;;1.03;0.50;;;6.20;99.90;;;;;;5204632;28;20536;-50
2024/01/04 08:32:26;;;;;;;0.30;0.30;;;6.30;99.90;;;;;;5200173;28;20652;-51
2024/01/04 08:34:57;;;;;;;0.37;0.37;;;6.20;99.90;;;;;;5184875;28;20702;-49
2024/01/04 08:37:28;;;;;;;0.30;0.30;;;6.20;99.90;;;;;;5184237;28;20537;-47
2024/01/04 08:39:58;;;;;;;0.40;0.40;;;6.20;99.90;;;;;;5200228;28;20291;-49
2024/01/04 08:42:29;;;;;;;0.70;0.70;;;6.00;99.90;;;;;;5202645;28;20684;-49
2024/01/04 08:45:00;;;;;;;0.43;0.43;;;6.00;99.90;;;;;;5183267;28;20203;-48
2024/01/04 08:47:30;;;;;;;1.67;0.50;;;5.80;99.90;;;;;;5202956;28;20208;-49
2024/01/04 08:50:01;;;;;;;0.40;0.40;;;5.80;99.90;;;;;;5204105;28;20179;-48
2024/01/04 08:52:31;;;;;;;0.27;0.27;;;5.80;99.90;;;;;;5202403;28;20187;-52
2024/01/04 08:55:02;;;;;;;0.30;0.30;;;5.60;99.90;;;;;;5202709;28;20508;-48
2024/01/04 08:57:33;;;;;;;0.37;0.37;;;5.60;99.90;;;;;;5201527;28;20686;-48
2024/01/04 09:00:05;;;;;;;0.40;0.40;;;5.50;99.90;;;;;;5192090;28;20518;-51
2024/01/04 09:02:35;;;;;;;0.50;0.50;;;5.30;99.90;;;;;;5201520;28;20183;-48
2024/01/04 09:05:06;;;;;;;0.30;0.30;;;5.30;99.90;;;;;;5200512;28;20791;-50
2024/01/04 09:07:37;;;;;;;0.50;0.50;;;5.20;99.90;;;;;;5202681;28;20222;-48
2024/01/04 09:10:08;;;;;;;0.53;0.50;;;5.20;99.90;;;;;;5202789;28;20485;-49
2024/01/04 09:12:39;;;;;;;5.83;0.50;;;5.20;99.90;;;;;;5202334;28;20191;-54
2024/01/04 09:15:09;;;;;;;0.20;0.20;;;5.20;99.90;;;;;;5201329;28;20198;-48
2024/01/04 09:17:42;;;;;;;0.30;0.30;;;5.20;99.90;;;;;;5202318;28;20207;-49
2024/01/04 09:20:15;;;;;;;0.37;0.37;;;5.20;99.90;;;;;;5200868;28;20753;-50
2024/01/04 09:22:47;;;;;;;0.43;0.30;;;5.10;99.90;;;;;;5202389;28;20515;-49
2024/01/04 09:25:17;;;;;;;0.37;0.37;;;5.00;99.90;;;;;;5202264;28;20433;-52
2024/01/04 09:27:48;;;;;;;0.40;0.40;;;5.00;99.90;;;;;;5191786;28;20539;-52
2024/01/04 09:30:19;;;;;;;0.60;0.60;;;4.90;99.90;;;;;;5185058;28;20183;-51
2024/01/04 09:32:49;;;;;;;0.60;0.60;;;4.90;99.90;;;;;;5181835;28;20211;-49
2024/01/04 09:35:22;;;;;;;1.33;0.50;;;4.80;99.90;;;;;;5199676;28;20186;-50
2024/01/04 09:37:52;;;;;;;0.40;0.40;;;4.70;99.90;;;;;;5201692;28;20678;-53
2024/01/04 09:40:24;;;;;;;0.40;0.40;;;4.60;99.90;;;;;;5189531;28;20441;-49
2024/01/04 09:42:55;;;;;;;1.17;0.70;;;4.60;99.90;;;;;;5198026;28;20673;-54
2024/01/04 09:45:29;;;;;;;0.67;0.67;;;4.50;99.90;;;;;;5199545;28;20422;-52
2024/01/04 09:48:04;;;;;;;1.03;0.70;;;4.40;99.90;;;;;;5199017;28;20455;-50
2024/01/04 09:50:37;;;;;;;0.40;0.40;;;4.40;99.90;;;;;;5201355;28;20428;-50
2024/01/04 09:53:08;;;;;;;0.80;0.80;;;4.40;99.90;;;;;;5185003;28;20460;-51
2024/01/04 09:55:40;;;;;;;0.87;0.70;;;4.40;99.90;;;;;;5198587;28;20475;-51
2024/01/04 09:58:11;;;;;;;1.13;0.60;;;4.30;99.90;;;;;;5184298;28;20866;-49
2024/01/04 10:00:41;;;;;;;1.03;0.70;;;4.40;99.90;;;;;;5199988;28;20469;-50
2024/01/04 10:03:13;;;;;;;0.40;0.40;;;4.50;99.90;;;;;;5180183;28;20271;-50
2024/01/04 10:05:45;;;;;;;0.60;0.60;;;4.50;99.90;;;;;;5194059;28;20261;-51
2024/01/04 10:08:29;;;;;;;1.00;0.53;;;4.60;99.90;;;;;;5200556;28;20443;-50
2024/01/04 10:11:10;;;;;;;0.73;0.50;;;4.50;99.90;;;;;;5188479;28;20441;-50
2024/01/04 10:13:41;;;;;;;1.07;0.60;;;4.50;99.90;;;;;;5200154;28;20579;-49
2024/01/04 10:16:12;;;;;;;0.73;0.47;;;4.60;99.90;;;;;;5189156;28;21090;-49
2024/01/04 10:18:43;;;;;;;4.20;1.20;;;4.60;99.90;;;;;;5184151;28;20438;-49
2024/01/04 10:21:15;;;;;;;0.40;0.40;;;4.50;99.90;;;;;;5204377;28;20201;-49
2024/01/04 10:23:56;;;;;;;1.90;0.53;;;4.40;99.90;;;;;;5202649;28;20489;-49
2024/01/04 10:26:27;;;;;;;0.43;0.43;;;4.40;99.90;;;;;;5208964;28;20463;-49
2024/01/04 10:29:00;;;;;;;0.43;0.43;;;4.30;99.90;;;;;;5204748;28;20445;-49
2024/01/04 10:31:31;;;;;;;0.43;0.43;;;4.30;99.90;;;;;;5201959;28;20513;-48
2024/01/04 10:34:02;;;;;;;2.13;0.80;;;4.30;99.90;;;;;;5186770;28;20576;-49
2024/01/04 10:36:38;;;;;;;4.40;1.37;;;4.30;99.90;;;;;;5189898;28;20691;-47
2024/01/04 10:39:08;;;;;;;1.37;0.90;;;4.30;99.90;;;;;;5193637;28;20178;-47
2024/01/04 10:41:40;;;;;;;0.70;0.70;;;4.40;99.90;;;;;;5203567;28;20489;-50
2024/01/04 10:44:11;;;;;;;0.80;0.50;;;4.60;99.90;;;;;;5193204;28;20440;-47
2024/01/04 10:46:42;;;;;;;3.77;2.43;;;4.50;99.90;;;;;;5203395;28;20463;-49
2024/01/04 10:49:16;;;;;;;3.87;2.60;;;4.60;99.90;;;;;;5204184;28;20217;-49
2024/01/04 10:51:51;;;;;;;0.93;0.67;;;4.60;99.90;;;;;;5205553;28;20425;-48
2024/01/04 10:54:30;;;;;;;0.40;0.40;;;4.60;99.90;;;;;;5191040;28;20465;-47
2024/01/04 10:57:02;;;;;;;1.30;1.20;;;4.70;99.90;;;;;;5200806;28;20455;-49
2024/01/04 10:59:34;;;;;;;0.50;0.50;;;4.70;99.90;;;;;;5203949;28;20577;-50
2024/01/04 11:02:07;;;;;;;2.20;0.93;;;4.70;99.90;;;;;;5203788;28;20768;-51
2024/01/04 11:04:40;;;;;;;0.57;0.57;;;4.60;99.90;;;;;;5200409;28;20475;-48
2024/01/04 11:07:14;;;;;;;0.60;0.60;;;4.70;99.90;;;;;;5206935;28;20954;-48
2024/01/04 11:09:45;;;;;;;0.43;0.43;;;4.80;99.90;;;;;;5201857;28;20489;-48
2024/01/04 11:12:16;;;;;;;0.77;0.77;;;4.70;99.90;;;;;;5185983;28;20438;-50
2024/01/04 11:14:47;;;;;;;0.60;0.60;;;4.60;99.90;;;;;;5202910;28;20455;-50
2024/01/04 11:17:51;;;;;;;0.80;0.80;;;4.60;99.90;;;;;;5209859;28;20476;-51
2024/01/04 11:20:51;;;;;;;0.40;0.40;;;4.60;99.90;;;;;;5188240;28;20594;-47
2024/01/04 11:23:46;;;;;;;0.60;0.60;;;4.50;99.90;;;;;;5205338;28;21017;-47
2024/01/04 11:26:28;;;;;;;0.80;0.80;;;4.60;99.90;;;;;;5205583;28;20457;-48
2024/01/04 11:29:00;;;;;;;0.30;0.30;;;4.50;99.90;;;;;;5205846;28;20781;-49
2024/01/04 11:31:31;;;;;;;0.40;0.40;;;4.50;99.90;;;;;;5202062;28;20439;-47
2024/01/04 11:34:04;;;;;;;0.43;0.43;;;4.40;99.90;;;;;;5205611;28;20460;-48
2024/01/04 11:36:35;;;;;;;0.40;0.40;;;4.30;99.90;;;;;;5205861;28;20199;-47
2024/01/04 11:39:06;;;;;;;2.93;0.47;;;4.20;99.90;;;;;;5189795;28;20441;-48
2024/01/04 11:41:37;;;;;;;1.13;0.73;;;4.30;99.90;;;;;;5203895;28;20185;-50
2024/01/04 11:44:17;;;;;;;0.83;0.60;;;4.20;99.90;;;;;;5195658;28;20191;-47
2024/01/04 11:46:57;;;;;;;0.43;0.43;;;4.20;99.90;;;;;;5204815;28;20451;-47
2024/01/04 11:49:28;;;;;;;3.90;1.10;;;4.20;99.90;;;;;;5203132;28;20531;-50
2024/01/04 11:52:04;;;;;;;1.07;0.73;;;4.30;99.90;;;;;;5191335;28;20452;-47
2024/01/04 11:54:36;;;;;;;1.27;1.10;;;4.20;99.90;;;;;;5192137;28;20607;-49
2024/01/04 11:57:17;;;;;;;4.43;2.67;;;4.20;99.90;;;;;;5202434;28;20454;-47
2024/01/04 11:59:48;;;;;;;1.60;1.23;;;4.10;99.90;;;;;;5203814;28;20449;-49
2024/01/04 12:02:20;;;;;;;1.17;0.60;;;4.20;99.90;;;;;;5203257;28;20478;-47
2024/01/04 12:04:51;;;;;;;1.00;1.00;;;4.20;99.90;;;;;;5189769;28;20499;-46
2024/01/04 12:07:24;;;;;;;0.77;0.77;;;4.20;99.90;;;;;;5188355;28;20471;-47
2024/01/04 12:09:59;;;;;;;0.70;0.70;;;4.00;99.90;;;;;;5205961;28;20238;-50
2024/01/04 12:12:30;;;;;;;0.50;0.50;;;4.00;99.90;;;;;;5182801;28;21016;-49
2024/01/04 12:15:03;;;;;;;0.60;0.60;;;3.90;99.90;;;;;;5206691;28;21472;-47
2024/01/04 12:17:33;;;;;;;1.20;1.10;;;3.90;99.90;;;;;;5186215;28;20230;-47
2024/01/04 12:20:09;;;;;;;1.17;1.17;;;3.90;99.90;;;;;;5205881;28;20465;-47
2024/01/04 12:22:40;;;;;;;1.97;0.70;;;3.80;99.90;;;;;;5204119;28;20174;-47
2024/01/04 12:25:11;;;;;;;1.23;1.23;;;3.80;99.90;;;;;;5204286;28;20427;-47
2024/01/04 12:27:42;;;;;;;0.83;0.83;;;3.80;99.90;;;;;;5205149;28;20683;-47
2024/01/04 12:30:13;;;;;;;2.00;0.90;;;3.80;99.90;;;;;;5205661;28;20848;-48
2024/01/04 12:32:44;;;;;;;1.53;1.43;;;3.80;99.90;;;;;;5204113;28;20201;-50
2024/01/04 12:35:18;;;;;;;1.07;1.07;;;3.90;99.90;;;;;;5208521;28;20298;-48
2024/01/04 12:37:59;;;;;;;0.93;0.80;;;4.00;99.90;;;;;;5202569;28;20506;-48
2024/01/04 12:40:41;;;;;;;3.60;0.80;;;4.00;99.90;;;;;;5187130;28;20436;-49
2024/01/04 12:43:13;;;;;;;0.97;0.97;;;3.90;99.90;;;;;;5206336;28;24672;-49
2024/01/04 12:45:43;;;;;;;0.80;0.80;;;3.80;99.90;;;;;;5202117;28;20451;-45
2024/01/04 12:48:19;;;;;;;0.50;0.50;;;3.80;99.90;;;;;;5205138;28;20534;-48
2024/01/04 12:50:50;;;;;;;2.63;0.60;;;3.80;99.90;;;;;;5203303;28;20186;-48
2024/01/04 12:53:20;;;;;;;0.87;0.87;;;3.90;99.90;;;;;;5188798;28;20472;-47
2024/01/04 12:55:51;;;;;;;2.73;0.90;;;3.80;99.90;;;;;;5198346;28;20247;-47
2024/01/04 12:58:22;;;;;;;2.70;2.50;;;3.70;99.90;;;;;;5208157;28;20687;-50
2024/01/04 13:00:52;;;;;;;1.20;1.20;;;3.70;99.90;;;;;;5189085;28;20722;-47
2024/01/04 13:03:23;;;;;;;1.00;1.00;;;3.70;99.90;;;;;;5199359;28;20242;-49
2024/01/04 13:08:37;;;;;;;1.27;0.67;;;3.60;99.90;;;;;;5140211;28;20569;-52
2024/01/04 13:11:09;;;;;;;1.30;0.63;;;3.60;99.90;;;;;;5144233;28;20429;-52
2024/01/04 13:13:40;;;;;;;3.97;1.07;;;3.50;99.90;;;;;;5140057;28;20754;-52
2024/01/04 13:16:11;;;;;;;2.87;0.70;;;3.60;99.90;;;;;;5123465;28;20537;-51
2024/01/04 13:18:42;;;;;;;0.43;0.43;;;3.60;99.90;;;;;;5161643;28;20305;-51
2024/01/04 13:21:12;;;;;;;0.60;0.60;;;3.70;99.90;;;;;;5158414;28;20991;-51
2024/01/04 13:23:43;;;;;;;0.30;0.30;;;3.70;99.90;;;;;;5161484;28;20249;-51